sensor_id;sensor_type;location;lat;lon;timestamp;pressure;altitude;pressure_sealevel;temperature;humidity
7962;BME280;4026;43.652;24.906;2023-04-26T00:01:17;98136.41;;;9.56;100.00
7962;BME280;4026;43.652;24.906;2023-04-26T00:03:44;98137.47;;;9.53;100.00
7962;BME280;4026;43.652;24.906;2023-04-26T00:06:11;98124.84;;;9.52;100.00
7962;BME280;4026;43.652;24.906;2023-04-26T00:08:40;98127.41;;;9.52;100.00
7962;BME280;4026;43.652;24.906;2023-04-26T00:11:07;98129.53;;;9.47;100.00
7962;BME280;4026;43.652;24.906;2023-04-26T00:13:34;98123.06;;;9.43;100.00
7962;BME280;4026;43.652;24.906;2023-04-26T00:16:02;98118.78;;;9.43;100.00
7962;BME280;4026;43.652;24.906;2023-04-26T00:18:29;98115.41;;;9.43;100.00
7962;BME280;4026;43.652;24.906;2023-04-26T00:20:56;98116.72;;;9.37;100.00
7962;BME280;4026;43.652;24.906;2023-04-26T00:23:23;98117.53;;;9.38;100.00
7962;BME280;4026;43.652;24.906;2023-04-26T00:25:51;98115.00;;;9.38;100.00
7962;BME280;4026;43.652;24.906;2023-04-26T00:28:18;98116.16;;;9.34;100.00
7962;BME280;4026;43.652;24.906;2023-04-26T00:30:45;98113.38;;;9.37;100.00
7962;BME280;4026;43.652;24.906;2023-04-26T00:33:13;98120.59;;;9.32;100.00
7962;BME280;4026;43.652;24.906;2023-04-26T00:35:40;98115.34;;;9.33;100.00
7962;BME280;4026;43.652;24.906;2023-04-26T00:38:07;98112.69;;;9.35;100.00
7962;BME280;4026;43.652;24.906;2023-04-26T00:40:33;98111.31;;;9.30;100.00
7962;BME280;4026;43.652;24.906;2023-04-26T00:43:02;98109.44;;;9.33;100.00
7962;BME280;4026;43.652;24.906;2023-04-26T00:45:29;98115.06;;;9.26;100.00
7962;BME280;4026;43.652;24.906;2023-04-26T00:47:57;98107.97;;;9.30;100.00
7962;BME280;4026;43.652;24.906;2023-04-26T00:50:24;98106.91;;;9.33;100.00
7962;BME280;4026;43.652;24.906;2023-04-26T00:52:51;98112.94;;;9.32;100.00
7962;BME280;4026;43.652;24.906;2023-04-26T00:55:19;98108.34;;;9.25;100.00
7962;BME280;4026;43.652;24.906;2023-04-26T00:57:47;98103.91;;;9.27;100.00
7962;BME280;4026;43.652;24.906;2023-04-26T01:00:15;98106.16;;;9.21;100.00
7962;BME280;4026;43.652;24.906;2023-04-26T01:02:43;98100.78;;;9.14;100.00
7962;BME280;4026;43.652;24.906;2023-04-26T01:05:10;98096.59;;;9.13;100.00
7962;BME280;4026;43.652;24.906;2023-04-26T01:07:37;98095.94;;;9.11;100.00
7962;BME280;4026;43.652;24.906;2023-04-26T01:10:04;98092.44;;;9.12;100.00
7962;BME280;4026;43.652;24.906;2023-04-26T01:12:33;98085.53;;;9.03;100.00
7962;BME280;4026;43.652;24.906;2023-04-26T01:15:02;98092.00;;;9.07;100.00
7962;BME280;4026;43.652;24.906;2023-04-26T01:17:31;98084.59;;;9.04;100.00
7962;BME280;4026;43.652;24.906;2023-04-26T01:19:58;98091.88;;;9.09;100.00
7962;BME280;4026;43.652;24.906;2023-04-26T01:22:24;98086.53;;;9.12;100.00
7962;BME280;4026;43.652;24.906;2023-04-26T01:24:55;98091.63;;;9.12;100.00
7962;BME280;4026;43.652;24.906;2023-04-26T01:27:23;98085.97;;;9.08;100.00
7962;BME280;4026;43.652;24.906;2023-04-26T01:29:50;98084.34;;;9.07;100.00
7962;BME280;4026;43.652;24.906;2023-04-26T01:32:17;98080.88;;;9.08;100.00
7962;BME280;4026;43.652;24.906;2023-04-26T01:34:44;98078.94;;;9.00;100.00
7962;BME280;4026;43.652;24.906;2023-04-26T01:37:11;98081.38;;;9.02;100.00
7962;BME280;4026;43.652;24.906;2023-04-26T01:39:38;98077.53;;;9.07;100.00
7962;BME280;4026;43.652;24.906;2023-04-26T01:42:06;98083.28;;;9.10;100.00
7962;BME280;4026;43.652;24.906;2023-04-26T01:44:33;98074.03;;;9.09;100.00
7962;BME280;4026;43.652;24.906;2023-04-26T01:46:59;98066.34;;;8.99;100.00
7962;BME280;4026;43.652;24.906;2023-04-26T01:49:26;98067.41;;;8.96;100.00
7962;BME280;4026;43.652;24.906;2023-04-26T01:51:53;98062.22;;;8.87;100.00
7962;BME280;4026;43.652;24.906;2023-04-26T01:54:20;98058.75;;;8.88;100.00
7962;BME280;4026;43.652;24.906;2023-04-26T01:56:47;98055.53;;;8.86;100.00
7962;BME280;4026;43.652;24.906;2023-04-26T01:59:15;98052.03;;;8.87;100.00
7962;BME280;4026;43.652;24.906;2023-04-26T02:01:42;98049.22;;;8.90;100.00
7962;BME280;4026;43.652;24.906;2023-04-26T02:04:09;98048.56;;;8.88;100.00
7962;BME280;4026;43.652;24.906;2023-04-26T02:06:36;98050.72;;;8.92;100.00
7962;BME280;4026;43.652;24.906;2023-04-26T02:09:03;98046.16;;;8.96;100.00
7962;BME280;4026;43.652;24.906;2023-04-26T02:11:30;98041.91;;;8.96;100.00
7962;BME280;4026;43.652;24.906;2023-04-26T02:13:57;98040.28;;;8.95;100.00
7962;BME280;4026;43.652;24.906;2023-04-26T02:16:25;98047.56;;;9.00;100.00
7962;BME280;4026;43.652;24.906;2023-04-26T02:18:52;98042.47;;;9.00;100.00
7962;BME280;4026;43.652;24.906;2023-04-26T02:21:19;98038.41;;;8.97;100.00
7962;BME280;4026;43.652;24.906;2023-04-26T02:23:46;98040.84;;;8.99;100.00
7962;BME280;4026;43.652;24.906;2023-04-26T02:26:13;98034.66;;;9.01;100.00
7962;BME280;4026;43.652;24.906;2023-04-26T02:28:40;98040.59;;;9.02;100.00
7962;BME280;4026;43.652;24.906;2023-04-26T02:31:07;98044.88;;;9.01;100.00
7962;BME280;4026;43.652;24.906;2023-04-26T02:33:35;98049.59;;;9.06;100.00
7962;BME280;4026;43.652;24.906;2023-04-26T02:36:02;98058.84;;;9.07;100.00
7962;BME280;4026;43.652;24.906;2023-04-26T02:38:31;98043.97;;;9.12;100.00
7962;BME280;4026;43.652;24.906;2023-04-26T02:40:58;98049.78;;;9.14;100.00
7962;BME280;4026;43.652;24.906;2023-04-26T02:43:25;98041.44;;;9.12;100.00
7962;BME280;4026;43.652;24.906;2023-04-26T02:45:52;98044.66;;;9.14;100.00
7962;BME280;4026;43.652;24.906;2023-04-26T02:48:18;98047.59;;;9.10;100.00
7962;BME280;4026;43.652;24.906;2023-04-26T02:50:47;98050.53;;;9.05;100.00
7962;BME280;4026;43.652;24.906;2023-04-26T02:53:14;98052.41;;;9.03;100.00
7962;BME280;4026;43.652;24.906;2023-04-26T02:55:42;98048.31;;;8.91;100.00
7962;BME280;4026;43.652;24.906;2023-04-26T02:58:09;98047.50;;;8.90;100.00
7962;BME280;4026;43.652;24.906;2023-04-26T03:00:35;98049.41;;;8.98;100.00
7962;BME280;4026;43.652;24.906;2023-04-26T03:03:02;98056.88;;;8.90;100.00
7962;BME280;4026;43.652;24.906;2023-04-26T03:05:29;98064.41;;;8.91;100.00
7962;BME280;4026;43.652;24.906;2023-04-26T03:07:57;98064.28;;;8.93;100.00
7962;BME280;4026;43.652;24.906;2023-04-26T03:10:24;98068.00;;;8.89;100.00
7962;BME280;4026;43.652;24.906;2023-04-26T03:12:51;98069.22;;;8.84;100.00
7962;BME280;4026;43.652;24.906;2023-04-26T03:15:18;98069.94;;;8.75;100.00
7962;BME280;4026;43.652;24.906;2023-04-26T03:17:44;98076.47;;;8.68;100.00
7962;BME280;4026;43.652;24.906;2023-04-26T03:20:11;98079.50;;;8.62;100.00
7962;BME280;4026;43.652;24.906;2023-04-26T03:22:38;98077.66;;;8.64;100.00
7962;BME280;4026;43.652;24.906;2023-04-26T03:25:07;98079.50;;;8.62;100.00
7962;BME280;4026;43.652;24.906;2023-04-26T03:27:34;98082.50;;;8.67;100.00
7962;BME280;4026;43.652;24.906;2023-04-26T03:30:01;98082.50;;;8.67;100.00
7962;BME280;4026;43.652;24.906;2023-04-26T03:32:28;98095.91;;;8.69;100.00
7962;BME280;4026;43.652;24.906;2023-04-26T03:34:55;98099.16;;;8.71;100.00
7962;BME280;4026;43.652;24.906;2023-04-26T03:37:23;98100.91;;;8.71;100.00
7962;BME280;4026;43.652;24.906;2023-04-26T03:39:49;98102.16;;;8.76;100.00
7962;BME280;4026;43.652;24.906;2023-04-26T03:42:19;98110.97;;;8.72;100.00
7962;BME280;4026;43.652;24.906;2023-04-26T03:44:46;98106.31;;;8.77;100.00
7962;BME280;4026;43.652;24.906;2023-04-26T03:47:13;98104.25;;;8.71;100.00
7962;BME280;4026;43.652;24.906;2023-04-26T03:49:40;98108.84;;;8.77;100.00
7962;BME280;4026;43.652;24.906;2023-04-26T03:52:07;98102.81;;;8.78;100.00
7962;BME280;4026;43.652;24.906;2023-04-26T03:54:34;98111.72;;;8.84;100.00
7962;BME280;4026;43.652;24.906;2023-04-26T03:57:01;98113.19;;;8.87;100.00
7962;BME280;4026;43.652;24.906;2023-04-26T03:59:29;98110.91;;;8.83;100.00
7962;BME280;4026;43.652;24.906;2023-04-26T04:01:56;98125.53;;;8.81;100.00
7962;BME280;4026;43.652;24.906;2023-04-26T04:04:23;98121.00;;;8.85;100.00
7962;BME280;4026;43.652;24.906;2023-04-26T04:06:50;98129.44;;;8.86;100.00
7962;BME280;4026;43.652;24.906;2023-04-26T04:09:17;98125.03;;;8.88;100.00
7962;BME280;4026;43.652;24.906;2023-04-26T04:11:44;98126.66;;;8.89;100.00
7962;BME280;4026;43.652;24.906;2023-04-26T04:14:11;98123.41;;;8.87;100.00
7962;BME280;4026;43.652;24.906;2023-04-26T04:16:39;98128.25;;;8.90;100.00
7962;BME280;4026;43.652;24.906;2023-04-26T04:19:06;98127.59;;;8.88;100.00
7962;BME280;4026;43.652;24.906;2023-04-26T04:21:33;98123.72;;;8.93;100.00
7962;BME280;4026;43.652;24.906;2023-04-26T04:24:00;98123.47;;;8.96;100.00
7962;BME280;4026;43.652;24.906;2023-04-26T04:26:26;98124.09;;;9.10;100.00
7962;BME280;4026;43.652;24.906;2023-04-26T04:28:53;98121.47;;;9.21;100.00
7962;BME280;4026;43.652;24.906;2023-04-26T04:31:21;98126.38;;;9.34;100.00
7962;BME280;4026;43.652;24.906;2023-04-26T04:33:50;98121.19;;;9.45;100.00
7962;BME280;4026;43.652;24.906;2023-04-26T04:36:17;98123.00;;;9.54;100.00
7962;BME280;4026;43.652;24.906;2023-04-26T04:38:44;98123.03;;;9.73;100.00
7962;BME280;4026;43.652;24.906;2023-04-26T04:41:11;98125.25;;;9.88;100.00
7962;BME280;4026;43.652;24.906;2023-04-26T04:43:38;98134.84;;;10.05;100.00
7962;BME280;4026;43.652;24.906;2023-04-26T04:46:06;98143.13;;;10.28;100.00
7962;BME280;4026;43.652;24.906;2023-04-26T04:48:32;98146.50;;;10.48;100.00
7962;BME280;4026;43.652;24.906;2023-04-26T04:51:01;98151.34;;;10.61;100.00
7962;BME280;4026;43.652;24.906;2023-04-26T04:53:28;98148.25;;;10.57;100.00
7962;BME280;4026;43.652;24.906;2023-04-26T04:55:54;98151.19;;;10.43;100.00
7962;BME280;4026;43.652;24.906;2023-04-26T04:58:21;98147.44;;;10.37;100.00
7962;BME280;4026;43.652;24.906;2023-04-26T05:00:48;98149.25;;;10.26;100.00
7962;BME280;4026;43.652;24.906;2023-04-26T05:03:15;98151.72;;;10.37;100.00
7962;BME280;4026;43.652;24.906;2023-04-26T05:05:42;98149.34;;;10.74;100.00
7962;BME280;4026;43.652;24.906;2023-04-26T05:08:11;98149.28;;;11.23;100.00
7962;BME280;4026;43.652;24.906;2023-04-26T05:10:37;98153.00;;;11.48;100.00
7962;BME280;4026;43.652;24.906;2023-04-26T05:13:04;98142.00;;;11.65;100.00
7962;BME280;4026;43.652;24.906;2023-04-26T05:15:31;98136.13;;;11.92;100.00
7962;BME280;4026;43.652;24.906;2023-04-26T05:17:58;98130.31;;;12.18;100.00
7962;BME280;4026;43.652;24.906;2023-04-26T05:20:25;98126.91;;;12.45;100.00
7962;BME280;4026;43.652;24.906;2023-04-26T05:22:52;98123.38;;;12.64;100.00
7962;BME280;4026;43.652;24.906;2023-04-26T05:25:20;98126.31;;;12.69;100.00
7962;BME280;4026;43.652;24.906;2023-04-26T05:27:48;98120.50;;;12.85;100.00
7962;BME280;4026;43.652;24.906;2023-04-26T05:30:15;98119.78;;;12.93;99.49
7962;BME280;4026;43.652;24.906;2023-04-26T05:32:41;98133.41;;;13.19;98.89
7962;BME280;4026;43.652;24.906;2023-04-26T05:35:08;98126.75;;;13.26;96.35
7962;BME280;4026;43.652;24.906;2023-04-26T05:37:35;98120.56;;;13.37;95.78
7962;BME280;4026;43.652;24.906;2023-04-26T05:40:05;98130.06;;;13.45;93.67
7962;BME280;4026;43.652;24.906;2023-04-26T05:42:36;98132.69;;;13.53;91.18
7962;BME280;4026;43.652;24.906;2023-04-26T05:45:03;98126.19;;;13.41;90.35
7962;BME280;4026;43.652;24.906;2023-04-26T05:47:30;98130.06;;;13.45;93.47
7962;BME280;4026;43.652;24.906;2023-04-26T05:49:57;98124.41;;;13.67;91.62
7962;BME280;4026;43.652;24.906;2023-04-26T05:52:23;98131.16;;;13.68;89.37
7962;BME280;4026;43.652;24.906;2023-04-26T05:54:51;98143.88;;;13.78;89.94
7962;BME280;4026;43.652;24.906;2023-04-26T05:57:17;98139.38;;;13.46;91.21
7962;BME280;4026;43.652;24.906;2023-04-26T05:59:45;98146.16;;;13.55;89.75
7962;BME280;4026;43.652;24.906;2023-04-26T06:02:12;98137.69;;;13.97;91.77
7962;BME280;4026;43.652;24.906;2023-04-26T06:04:39;98137.72;;;14.05;89.82
7962;BME280;4026;43.652;24.906;2023-04-26T06:07:06;98143.88;;;14.29;88.35
7962;BME280;4026;43.652;24.906;2023-04-26T06:09:33;98146.13;;;14.23;85.12
7962;BME280;4026;43.652;24.906;2023-04-26T06:11:59;98149.50;;;14.48;86.52
7962;BME280;4026;43.652;24.906;2023-04-26T06:14:26;98146.69;;;14.52;82.97
7962;BME280;4026;43.652;24.906;2023-04-26T06:16:55;98141.72;;;14.99;85.88
7962;BME280;4026;43.652;24.906;2023-04-26T06:19:22;98146.84;;;15.15;81.78
7962;BME280;4026;43.652;24.906;2023-04-26T06:21:48;98144.22;;;15.40;83.57
7962;BME280;4026;43.652;24.906;2023-04-26T06:24:16;98141.38;;;15.02;84.23
7962;BME280;4026;43.652;24.906;2023-04-26T06:26:43;98137.03;;;14.86;83.88
7962;BME280;4026;43.652;24.906;2023-04-26T06:29:10;98139.66;;;15.50;83.79
7962;BME280;4026;43.652;24.906;2023-04-26T06:31:37;98144.44;;;15.86;80.68
7962;BME280;4026;43.652;24.906;2023-04-26T06:34:05;98146.69;;;15.81;78.38
7962;BME280;4026;43.652;24.906;2023-04-26T06:36:32;98140.88;;;15.87;79.70
7962;BME280;4026;43.652;24.906;2023-04-26T06:38:58;98143.69;;;16.09;75.67
7962;BME280;4026;43.652;24.906;2023-04-26T06:41:25;98152.78;;;15.88;76.65
7962;BME280;4026;43.652;24.906;2023-04-26T06:43:52;98154.59;;;16.19;77.86
7962;BME280;4026;43.652;24.906;2023-04-26T06:46:19;98147.31;;;16.45;75.39
7962;BME280;4026;43.652;24.906;2023-04-26T06:48:46;98154.28;;;16.68;73.95
7962;BME280;4026;43.652;24.906;2023-04-26T06:51:14;98151.88;;;16.89;71.16
7962;BME280;4026;43.652;24.906;2023-04-26T06:53:40;98148.41;;;16.74;71.20
7962;BME280;4026;43.652;24.906;2023-04-26T06:56:07;98152.59;;;16.75;74.36
7962;BME280;4026;43.652;24.906;2023-04-26T06:58:34;98153.03;;;16.41;72.72
7962;BME280;4026;43.652;24.906;2023-04-26T07:01:01;98157.44;;;16.78;72.08
7962;BME280;4026;43.652;24.906;2023-04-26T07:03:28;98165.00;;;16.57;72.33
7962;BME280;4026;43.652;24.906;2023-04-26T07:05:55;98155.59;;;16.41;74.19
7962;BME280;4026;43.652;24.906;2023-04-26T07:08:23;98165.25;;;16.16;73.44
7962;BME280;4026;43.652;24.906;2023-04-26T07:10:50;98164.97;;;16.02;71.13
7962;BME280;4026;43.652;24.906;2023-04-26T07:13:17;98166.50;;;16.20;70.92
7962;BME280;4026;43.652;24.906;2023-04-26T07:15:43;98175.50;;;16.78;71.84
7962;BME280;4026;43.652;24.906;2023-04-26T07:18:10;98169.16;;;16.58;67.76
7962;BME280;4026;43.652;24.906;2023-04-26T07:20:37;98170.31;;;16.32;69.14
7962;BME280;4026;43.652;24.906;2023-04-26T07:23:04;98170.94;;;16.88;68.17
7962;BME280;4026;43.652;24.906;2023-04-26T07:25:32;98162.66;;;16.70;68.39
7962;BME280;4026;43.652;24.906;2023-04-26T07:27:59;98170.09;;;16.65;68.65
7962;BME280;4026;43.652;24.906;2023-04-26T07:30:26;98179.41;;;16.74;71.73
7962;BME280;4026;43.652;24.906;2023-04-26T07:32:53;98175.19;;;17.19;70.60
7962;BME280;4026;43.652;24.906;2023-04-26T07:35:20;98180.31;;;17.57;67.14
7962;BME280;4026;43.652;24.906;2023-04-26T07:37:46;98184.28;;;16.92;67.22
7962;BME280;4026;43.652;24.906;2023-04-26T07:40:13;98175.75;;;16.91;69.28
7962;BME280;4026;43.652;24.906;2023-04-26T07:42:42;98185.47;;;16.58;67.37
7962;BME280;4026;43.652;24.906;2023-04-26T07:45:09;98183.56;;;16.75;68.97
7962;BME280;4026;43.652;24.906;2023-04-26T07:47:36;98180.78;;;17.08;69.11
7962;BME280;4026;43.652;24.906;2023-04-26T07:50:04;98191.31;;;17.21;65.81
7962;BME280;4026;43.652;24.906;2023-04-26T07:52:31;98187.31;;;18.01;66.55
7962;BME280;4026;43.652;24.906;2023-04-26T07:54:58;98180.59;;;17.92;64.03
7962;BME280;4026;43.652;24.906;2023-04-26T07:57:25;98179.69;;;17.70;64.73
7962;BME280;4026;43.652;24.906;2023-04-26T07:59:53;98184.94;;;17.76;66.01
7962;BME280;4026;43.652;24.906;2023-04-26T08:02:20;98182.00;;;18.09;65.38
7962;BME280;4026;43.652;24.906;2023-04-26T08:04:47;98190.94;;;18.43;62.88
7962;BME280;4026;43.652;24.906;2023-04-26T08:07:16;98185.88;;;18.35;62.66
7962;BME280;4026;43.652;24.906;2023-04-26T08:09:43;98182.22;;;18.65;65.35
7962;BME280;4026;43.652;24.906;2023-04-26T08:12:10;98185.28;;;18.32;62.29
7962;BME280;4026;43.652;24.906;2023-04-26T08:14:37;98181.13;;;18.53;63.92
7962;BME280;4026;43.652;24.906;2023-04-26T08:17:06;98181.03;;;18.83;65.43
7962;BME280;4026;43.652;24.906;2023-04-26T08:19:33;98180.75;;;18.56;62.13
7962;BME280;4026;43.652;24.906;2023-04-26T08:22:00;98167.28;;;18.24;60.10
7962;BME280;4026;43.652;24.906;2023-04-26T08:24:28;98180.47;;;18.72;62.63
7962;BME280;4026;43.652;24.906;2023-04-26T08:26:55;98167.94;;;18.91;61.33
7962;BME280;4026;43.652;24.906;2023-04-26T08:29:22;98172.13;;;18.70;57.80
7962;BME280;4026;43.652;24.906;2023-04-26T08:31:49;98171.03;;;18.80;57.90
7962;BME280;4026;43.652;24.906;2023-04-26T08:34:18;98163.53;;;19.41;59.41
7962;BME280;4026;43.652;24.906;2023-04-26T08:36:44;98173.16;;;19.82;58.09
7962;BME280;4026;43.652;24.906;2023-04-26T08:39:11;98171.41;;;19.96;57.63
7962;BME280;4026;43.652;24.906;2023-04-26T08:41:42;98171.81;;;19.30;57.72
7962;BME280;4026;43.652;24.906;2023-04-26T08:44:09;98165.78;;;19.22;56.71
7962;BME280;4026;43.652;24.906;2023-04-26T08:46:42;98180.53;;;19.85;58.86
7962;BME280;4026;43.652;24.906;2023-04-26T08:49:16;98161.50;;;19.43;58.46
7962;BME280;4026;43.652;24.906;2023-04-26T08:51:49;98172.00;;;19.98;55.00
7962;BME280;4026;43.652;24.906;2023-04-26T08:54:17;98173.44;;;19.65;52.29
7962;BME280;4026;43.652;24.906;2023-04-26T08:56:45;98171.72;;;19.73;54.27
7962;BME280;4026;43.652;24.906;2023-04-26T08:59:13;98183.22;;;19.63;55.52
7962;BME280;4026;43.652;24.906;2023-04-26T09:01:42;98174.59;;;19.91;54.59
7962;BME280;4026;43.652;24.906;2023-04-26T09:04:09;98170.28;;;20.11;55.36
7962;BME280;4026;43.652;24.906;2023-04-26T09:06:37;98177.16;;;20.39;54.41
7962;BME280;4026;43.652;24.906;2023-04-26T09:09:07;98170.66;;;20.08;52.46
7962;BME280;4026;43.652;24.906;2023-04-26T09:11:55;98182.91;;;19.80;53.33
7962;BME280;4026;43.652;24.906;2023-04-26T09:14:22;98184.16;;;19.84;54.64
7962;BME280;4026;43.652;24.906;2023-04-26T09:16:49;98175.28;;;20.13;55.60
7962;BME280;4026;43.652;24.906;2023-04-26T09:19:16;98189.47;;;20.17;54.84
7962;BME280;4026;43.652;24.906;2023-04-26T09:21:45;98194.38;;;20.53;55.04
7962;BME280;4026;43.652;24.906;2023-04-26T09:24:13;98185.44;;;20.15;53.50
7962;BME280;4026;43.652;24.906;2023-04-26T09:26:41;98183.31;;;20.25;52.99
7962;BME280;4026;43.652;24.906;2023-04-26T09:29:12;98173.94;;;20.37;52.97
7962;BME280;4026;43.652;24.906;2023-04-26T09:31:41;98188.06;;;20.89;53.96
7962;BME280;4026;43.652;24.906;2023-04-26T09:34:09;98175.44;;;20.99;53.73
7962;BME280;4026;43.652;24.906;2023-04-26T09:36:46;98172.84;;;20.66;51.00
7962;BME280;4026;43.652;24.906;2023-04-26T09:39:14;98183.25;;;21.13;52.28
7962;BME280;4026;43.652;24.906;2023-04-26T09:41:56;98188.94;;;20.42;51.34
7962;BME280;4026;43.652;24.906;2023-04-26T09:44:23;98180.97;;;19.95;51.66
7962;BME280;4026;43.652;24.906;2023-04-26T09:46:59;98174.34;;;20.41;52.20
7962;BME280;4026;43.652;24.906;2023-04-26T09:49:27;98169.03;;;20.01;52.85
7962;BME280;4026;43.652;24.906;2023-04-26T09:52:04;98180.25;;;20.08;51.10
7962;BME280;4026;43.652;24.906;2023-04-26T09:54:40;98167.25;;;20.76;51.18
7962;BME280;4026;43.652;24.906;2023-04-26T09:57:08;98171.06;;;21.27;49.95
7962;BME280;4026;43.652;24.906;2023-04-26T09:59:42;98179.38;;;21.75;49.32
7962;BME280;4026;43.652;24.906;2023-04-26T10:02:19;98165.44;;;20.70;51.57
7962;BME280;4026;43.652;24.906;2023-04-26T10:04:48;98170.81;;;20.62;49.51
7962;BME280;4026;43.652;24.906;2023-04-26T10:07:17;98186.16;;;19.95;49.73
7962;BME280;4026;43.652;24.906;2023-04-26T10:09:46;98184.84;;;19.71;51.19
7962;BME280;4026;43.652;24.906;2023-04-26T10:12:14;98177.34;;;19.20;53.41
7962;BME280;4026;43.652;24.906;2023-04-26T10:14:41;98170.31;;;18.49;52.73
7962;BME280;4026;43.652;24.906;2023-04-26T10:17:08;98165.38;;;18.33;53.86
7962;BME280;4026;43.652;24.906;2023-04-26T10:19:37;98181.75;;;18.76;53.65
7962;BME280;4026;43.652;24.906;2023-04-26T10:22:07;98178.69;;;18.51;52.49
7962;BME280;4026;43.652;24.906;2023-04-26T10:24:35;98184.94;;;18.78;53.16
7962;BME280;4026;43.652;24.906;2023-04-26T10:27:04;98175.84;;;19.11;53.51
7962;BME280;4026;43.652;24.906;2023-04-26T10:30:08;98185.03;;;19.35;50.83
7962;BME280;4026;43.652;24.906;2023-04-26T10:36:13;98188.94;;;19.87;50.76
7962;BME280;4026;43.652;24.906;2023-04-26T10:38:41;98180.91;;;20.30;52.09
7962;BME280;4026;43.652;24.906;2023-04-26T10:41:27;98187.78;;;19.96;49.89
7962;BME280;4026;43.652;24.906;2023-04-26T10:43:58;98199.50;;;19.57;51.56
7962;BME280;4026;43.652;24.906;2023-04-26T10:46:33;98191.25;;;19.40;53.85
7962;BME280;4026;43.652;24.906;2023-04-26T10:49:15;98196.41;;;19.12;53.09
7962;BME280;4026;43.652;24.906;2023-04-26T10:52:07;98188.38;;;18.64;55.56
7962;BME280;4026;43.652;24.906;2023-04-26T10:54:51;98189.84;;;18.52;54.53
7962;BME280;4026;43.652;24.906;2023-04-26T10:57:19;98183.06;;;18.72;55.38
7962;BME280;4026;43.652;24.906;2023-04-26T11:00:24;98182.53;;;19.20;52.48
7962;BME280;4026;43.652;24.906;2023-04-26T11:03:12;98184.44;;;19.67;51.92
7962;BME280;4026;43.652;24.906;2023-04-26T11:06:04;98182.09;;;19.73;53.64
7962;BME280;4026;43.652;24.906;2023-04-26T11:08:31;98183.53;;;19.82;55.67
7962;BME280;4026;43.652;24.906;2023-04-26T11:11:07;98180.03;;;20.03;51.88
7962;BME280;4026;43.652;24.906;2023-04-26T11:13:36;98176.16;;;19.92;52.85
7962;BME280;4026;43.652;24.906;2023-04-26T11:16:06;98183.44;;;19.68;52.74
7962;BME280;4026;43.652;24.906;2023-04-26T11:18:34;98176.72;;;20.29;53.74
7962;BME280;4026;43.652;24.906;2023-04-26T11:21:01;98182.25;;;20.12;52.08
7962;BME280;4026;43.652;24.906;2023-04-26T11:23:29;98188.47;;;19.77;51.92
7962;BME280;4026;43.652;24.906;2023-04-26T11:25:56;98170.28;;;19.42;53.02
7962;BME280;4026;43.652;24.906;2023-04-26T11:28:23;98173.94;;;19.54;53.67
7962;BME280;4026;43.652;24.906;2023-04-26T11:30:50;98170.56;;;19.82;55.28
7962;BME280;4026;43.652;24.906;2023-04-26T11:33:20;98171.53;;;20.29;51.71
7962;BME280;4026;43.652;24.906;2023-04-26T11:35:47;98166.84;;;20.72;50.68
7962;BME280;4026;43.652;24.906;2023-04-26T11:38:15;98161.88;;;20.97;50.83
7962;BME280;4026;43.652;24.906;2023-04-26T11:40:43;98160.06;;;20.71;50.53
7962;BME280;4026;43.652;24.906;2023-04-26T11:43:10;98159.84;;;20.73;51.29
7962;BME280;4026;43.652;24.906;2023-04-26T11:45:38;98156.34;;;20.19;51.69
7962;BME280;4026;43.652;24.906;2023-04-26T11:48:06;98159.50;;;20.15;52.37
7962;BME280;4026;43.652;24.906;2023-04-26T11:50:38;98163.50;;;20.10;52.58
7962;BME280;4026;43.652;24.906;2023-04-26T11:53:07;98166.19;;;19.89;52.07
7962;BME280;4026;43.652;24.906;2023-04-26T11:55:34;98164.75;;;19.80;51.74
7962;BME280;4026;43.652;24.906;2023-04-26T11:58:09;98169.50;;;19.70;51.83
7962;BME280;4026;43.652;24.906;2023-04-26T12:00:37;98170.91;;;19.44;52.73
7962;BME280;4026;43.652;24.906;2023-04-26T12:03:05;98170.59;;;19.60;53.41
7962;BME280;4026;43.652;24.906;2023-04-26T12:05:36;98172.75;;;19.50;52.77
7962;BME280;4026;43.652;24.906;2023-04-26T12:08:03;98171.72;;;19.16;52.78
7962;BME280;4026;43.652;24.906;2023-04-26T12:10:33;98161.84;;;19.27;54.10
7962;BME280;4026;43.652;24.906;2023-04-26T12:13:00;98165.78;;;19.92;54.30
7962;BME280;4026;43.652;24.906;2023-04-26T12:15:28;98172.06;;;20.04;50.98
7962;BME280;4026;43.652;24.906;2023-04-26T12:17:58;98164.38;;;20.44;51.69
7962;BME280;4026;43.652;24.906;2023-04-26T12:20:37;98165.41;;;19.95;51.23
7962;BME280;4026;43.652;24.906;2023-04-26T12:23:05;98151.59;;;20.49;50.40
7962;BME280;4026;43.652;24.906;2023-04-26T12:25:33;98157.59;;;20.43;50.02
7962;BME280;4026;43.652;24.906;2023-04-26T12:28:03;98165.59;;;20.48;49.83
7962;BME280;4026;43.652;24.906;2023-04-26T12:30:30;98156.28;;;20.12;49.94
7962;BME280;4026;43.652;24.906;2023-04-26T12:32:57;98158.69;;;20.07;50.12
7962;BME280;4026;43.652;24.906;2023-04-26T12:35:24;98155.66;;;19.62;50.77
7962;BME280;4026;43.652;24.906;2023-04-26T12:37:52;98155.25;;;19.59;50.00
7962;BME280;4026;43.652;24.906;2023-04-26T12:40:22;98161.06;;;19.33;52.58
7962;BME280;4026;43.652;24.906;2023-04-26T12:42:49;98157.09;;;19.37;53.32
7962;BME280;4026;43.652;24.906;2023-04-26T12:45:16;98164.28;;;19.35;51.56
7962;BME280;4026;43.652;24.906;2023-04-26T12:47:44;98161.22;;;19.59;50.02
7962;BME280;4026;43.652;24.906;2023-04-26T12:50:11;98158.88;;;19.64;52.04
7962;BME280;4026;43.652;24.906;2023-04-26T12:52:38;98158.47;;;20.02;52.17
7962;BME280;4026;43.652;24.906;2023-04-26T12:55:08;98156.19;;;19.86;51.35
7962;BME280;4026;43.652;24.906;2023-04-26T12:57:36;98154.78;;;19.49;51.21
7962;BME280;4026;43.652;24.906;2023-04-26T13:00:04;98157.84;;;19.31;52.50
7962;BME280;4026;43.652;24.906;2023-04-26T13:02:31;98152.91;;;19.08;53.61
7962;BME280;4026;43.652;24.906;2023-04-26T13:04:59;98158.97;;;18.93;53.74
7962;BME280;4026;43.652;24.906;2023-04-26T13:07:28;98157.69;;;19.04;53.37
7962;BME280;4026;43.652;24.906;2023-04-26T13:09:55;98159.56;;;18.89;52.54
7962;BME280;4026;43.652;24.906;2023-04-26T13:12:23;98155.34;;;18.66;52.41
7962;BME280;4026;43.652;24.906;2023-04-26T13:14:50;98169.38;;;18.36;53.43
7962;BME280;4026;43.652;24.906;2023-04-26T13:17:17;98170.31;;;18.13;53.80
7962;BME280;4026;43.652;24.906;2023-04-26T13:19:44;98167.91;;;18.12;54.12